メインページ
METAR-TAF:

METAR-TAF

空港 :

プンタアレナス, チリ

緯度: 53-00S, 経度: 070-51W, 海抜: 37m

現時点の気象観測

当レポートは23分前の21:00(UTC)に作成
南西の風 15kt
気温 7°C
湿度 42%
気圧 1013 hPa
視程10km以上
1,500メートル以下は雲なし、積乱雲なし

METAR: SCCI 202100Z 22015KT CAVOK 07/M05 Q1013 NOSIG

時間: 18:23 (21:23 UTC)

予報

当レポートは5時間11分前の16:12(UTC)に作成
予報は20日の 18時(UTC)から 21日の 18時(UTC)まで有効
西の風 15kt
視程10km以上
高度4000ftの千切れ雲あり
21日の 02時(UTC)から 21日の 04時(UTC)まで徐々に
西/北西の風 15kt
高度3500ftの雲は散在している
21日の 03時(UTC)から 21日の 08時(UTC)まで一時的に
高度2000ftの雲は散在している
確率 03% :
21日の 16時(UTC)から 21日の 18時(UTC)まで一時的に
の風 15kt
視程: 8000m
高度1500ftの雲は散在している
高度3000ftの千切れ雲あり
弱いにわか雨

TAF: SCCI 201612Z 2018/2118 26015KT 9999 BKN040 TN02/2109Z TX11/2118Z BECMG 2102/2104 30015KT SCT035 TEMPO 2103/2108 SCT020 PROB030 TEMPO 2116/2118 35015KT 8000 -SHRA SCT015 BKN030

4,000以上の空港の気象観測と天気予報(METAR報とTAF報)

利用可能な観測所は地図上に黄色い丸と赤い丸で示す。

丸の上にカーソルを重ねると観測所名を参照できる。

次にクリックすると気象観測と天気予報を参照できる。

マップの切り替え:黒色「×」印の緑ボタンをクリックして拡大、「-」印の緑ボタンをクリックして縮小、緑色の三角印をクリックして隣りの地図に切り替え


METAR-TAF: